Time;durP1;ratioP1;P1;durP2;ratioP2;P2;SDS_P1;SDS_P2;PMS_P1;PMS_P2;Temp;Humidity;BMP_temperature;BMP_pressure;BME280_temperature;BME280_humidity;BME280_pressure;Samples;Min_cycle;Max_cycle;Signal;HPM_P1;HPM_P2
2022/08/17 05:02:59;;;;;;;;;;;;;;;;;;344520;28;1701;-69
2022/08/17 05:03:09;;;;;;;;;;;;;;;;;;345352;28;1301;-69
2022/08/17 05:03:22;;;;;;;;;;;;;;;;;;344895;28;1359;-69
2022/08/17 05:03:33;;;;;;;;;;;;;;;;;;345434;28;944;-69
2022/08/17 05:03:43;;;;;;;;;;;;;;;;;;345258;28;1642;-70
2022/08/17 05:04:00;;;;;;;;;;;;;;;;;;345194;28;996;-69
2022/08/17 05:04:12;;;;;;;;;;;;;;;;;;344346;28;1809;-68
2022/08/17 05:04:23;;;;;;;;;;;;;;;;;;345129;28;2170;-68
2022/08/17 05:04:34;;;;;;;;;;;;;;;;;;345387;28;919;-68
2022/08/17 05:04:44;;;;;;;;;;;;;;;;;;345219;28;2264;-69
2022/08/17 05:04:54;;;;;;;;;;;;;;;;;;345326;28;1065;-69
2022/08/17 05:05:04;;;;;;;;;;;;;;;;;;345282;28;1040;-69
2022/08/17 05:05:19;;;;;;;;;;;;;;;;;;345420;28;832;-66
2022/08/17 05:05:31;;;;;;;;;;;;;;;;;;344102;28;1523;-67
2022/08/17 05:05:43;;;;;;;;;;;;;;;;;;345283;28;1531;-66
2022/08/17 05:05:53;;;;;;;;;;;;;;;;;;345452;28;801;-66
2022/08/17 05:06:04;;;;;;;;;;;;;;;;;;345395;28;2158;-66
2022/08/17 05:06:14;;;;;;;;;;;;;;;;;;345290;28;1638;-66
2022/08/17 05:06:26;;;;;;;;;;;;;;;;;;345415;28;860;-66
2022/08/17 05:06:36;;;;;;;;;;;;;;;;;;344812;28;2232;-66
2022/08/17 05:06:48;;;;;;;;;;;;;;;;;;345260;28;1460;-66
2022/08/17 05:06:58;;;;;;;;;;;;;;;;;;345356;28;967;-66
2022/08/17 05:07:09;;;;;;;;;;;;;;;;;;345432;28;987;-66
2022/08/17 05:07:19;;;;;;;;;;;;;;;;;;345540;28;1005;-66
2022/08/17 05:07:30;;;;;;;;;;;;;;;;;;345444;28;968;-67
2022/08/17 05:07:40;;;;;;;;;;;;;;;;;;344895;28;1649;-66
2022/08/17 05:07:51;;;;;;;;;;;;;;;;;;345102;28;1662;-66
2022/08/17 05:08:03;;;;;;;;;;;;;;;;;;345424;28;912;-67
2022/08/17 05:08:13;;;;;;;;;;;;;;;;;;345313;28;1265;-66
2022/08/17 05:08:24;;;;;;;;;;;;;;;;;;343957;28;889;-67
2022/08/17 05:08:34;;;;;;;;;;;;;;;;;;345119;28;786;-68
2022/08/17 05:08:44;;;;;;;;;;;;;;;;;;345225;28;1164;-66
2022/08/17 05:08:55;;;;;;;;;;;;;;;;;;348333;28;1157;-66
2022/08/17 05:09:05;;;;;;;;;;;;;;;;;;352559;28;923;-66
2022/08/17 05:09:16;;;;;;;;;;;;;;;;;;352548;28;888;-66
2022/08/17 05:09:26;;;;;;;;;;;;;;;;;;352544;28;999;-66
2022/08/17 05:09:37;;;;;;;;;;;;;;;;;;352261;28;1704;-66
2022/08/17 05:09:47;;;;;;;;;;;;;;;;;;344933;28;1498;-66
2022/08/17 05:09:57;;;;;;;;;;;;;;;;;;345297;28;1012;-66
2022/08/17 05:10:07;;;;;;;;;;;;;;;;;;345216;28;1865;-67
2022/08/17 05:10:18;;;;;;;;;;;;;;;;;;345404;28;999;-66
2022/08/17 05:10:31;;;;;;;;;;;;;;;;;;345336;28;944;-66
2022/08/17 05:10:42;;;;;;;;;;;;;;;;;;345206;28;830;-67
2022/08/17 05:10:52;;;;;;;;;;;;;;;;;;345394;28;892;-67
2022/08/17 05:11:03;;;;;;;;;;;;;;;;;;345286;28;876;-66
2022/08/17 05:11:13;;;;;;;;;;;;;;;;;;345457;28;967;-67
2022/08/17 05:11:25;;;;;;;;;;;;;;;;;;345407;28;1080;-66
2022/08/17 05:11:35;;;;;;;;;;;;;;;;;;345428;28;908;-66
2022/08/17 05:11:45;;;;;;;;;;;;;;;;;;345465;28;947;-66
2022/08/17 05:11:58;;;;;;;;;;;;;;;;;;345335;28;1127;-67
2022/08/17 05:12:09;;;;;;;;;;;;;;;;;;345422;28;940;-66
2022/08/17 05:12:19;;;;;;;;;;;;;;;;;;345481;28;989;-66
2022/08/17 05:12:29;;;;;;;;;;;;;;;;;;345322;28;896;-65
2022/08/17 05:12:39;;;;;;;;;;;;;;;;;;345203;28;956;-66
2022/08/17 05:13:18;;;;;;;;;;;;;;;;;;345197;28;826;-66
2022/08/17 05:13:29;;;;;;;;;;;;;;;;;;349413;28;996;-66
2022/08/17 05:13:39;;;;;;;;;;;;;;;;;;349344;28;979;-67
2022/08/17 05:13:49;;;;;;;;;;;;;;;;;;349407;28;944;-66
2022/08/17 05:13:59;;;;;;;;;;;;;;;;;;345198;28;1211;-67
2022/08/17 05:14:10;;;;;;;;;;;;;;;;;;345431;28;935;-66
2022/08/17 05:14:21;;;;;;;;;;;;;;;;;;345407;28;869;-67
2022/08/17 05:14:31;;;;;;;;;;;;;;;;;;345386;28;919;-66
2022/08/17 05:14:41;;;;;;;;;;;;;;;;;;345323;28;785;-66
2022/08/17 05:14:51;;;;;;;;;;;;;;;;;;344824;28;1720;-66
2022/08/17 05:15:01;;;;;;;;;;;;;;;;;;345289;28;916;-65
2022/08/17 05:15:14;;;;;;;;;;;;;;;;;;345442;28;828;-66
2022/08/17 05:15:25;;;;;;;;;;;;;;;;;;345386;28;963;-66
2022/08/17 05:15:36;;;;;;;;;;;;;;;;;;345554;28;1486;-65
2022/08/17 05:15:47;;;;;;;;;;;;;;;;;;345300;28;1709;-65
2022/08/17 05:15:59;;;;;;;;;;;;;;;;;;345318;28;983;-66
2022/08/17 05:16:09;;;;;;;;;;;;;;;;;;345432;28;845;-66
2022/08/17 05:16:20;;;;;;;;;;;;;;;;;;345393;28;932;-66
2022/08/17 05:16:30;;;;;;;;;;;;;;;;;;345326;28;936;-65
2022/08/17 05:16:41;;;;;;;;;;;;;;;;;;345285;28;994;-65
2022/08/17 05:16:51;;;;;;;;;;;;;;;;;;345381;28;991;-65
2022/08/17 05:17:01;;;;;;;;;;;;;;;;;;345384;28;845;-64
2022/08/17 05:17:11;;;;;;;;;;;;;;;;;;345343;28;959;-65
2022/08/17 05:17:21;;;;;;;;;;;;;;;;;;345151;28;1637;-64
2022/08/17 05:17:32;;;;;;;;;;;;;;;;;;345350;28;1558;-65
2022/08/17 05:17:42;;;;;;;;;;;;;;;;;;345402;28;904;-65
2022/08/17 05:17:52;;;;;;;;;;;;;;;;;;345220;28;1292;-64
2022/08/17 05:18:03;;;;;;;;;;;;;;;;;;345267;28;1571;-65
2022/08/17 05:18:14;;;;;;;;;;;;;;;;;;345400;28;872;-65
2022/08/17 05:18:24;;;;;;;;;;;;;;;;;;345355;28;921;-65
2022/08/17 05:18:37;;;;;;;;;;;;;;;;;;345311;28;1030;-66
2022/08/17 05:18:47;;;;;;;;;;;;;;;;;;345278;28;2550;-65
2022/08/17 05:18:58;;;;;;;;;;;;;;;;;;345466;28;932;-64
2022/08/17 05:19:08;;;;;;;;;;;;;;;;;;345362;28;770;-65
2022/08/17 05:19:18;;;;;;;;;;;;;;;;;;345398;28;1000;-65
2022/08/17 05:19:28;;;;;;;;;;;;;;;;;;343975;28;956;-66
2022/08/17 05:19:39;;;;;;;;;;;;;;;;;;344058;28;774;-65
2022/08/17 05:19:50;;;;;;;;;;;;;;;;;;345093;28;1791;-64
2022/08/17 05:20:00;;;;;;;;;;;;;;;;;;345421;28;816;-65
2022/08/17 05:20:10;;;;;;;;;;;;;;;;;;345359;28;971;-65
2022/08/17 05:20:21;;;;;;;;;;;;;;;;;;345344;28;758;-65
2022/08/17 05:20:32;;;;;;;;;;;;;;;;;;345340;28;1092;-65
2022/08/17 05:20:42;;;;;;;;;;;;;;;;;;345330;28;802;-65
2022/08/17 05:20:53;;;;;;;;;;;;;;;;;;345527;28;931;-65
2022/08/17 05:21:03;;;;;;;;;;;;;;;;;;345326;28;967;-65
2022/08/17 05:21:14;;;;;;;;;;;;;;;;;;345283;28;929;-65
2022/08/17 05:21:25;;;;;;;;;;;;;;;;;;345429;28;1307;-65
2022/08/17 05:21:35;;;;;;;;;;;;;;;;;;345397;28;1176;-65
2022/08/17 05:21:46;;;;;;;;;;;;;;;;;;345149;28;1482;-65
2022/08/17 05:21:56;;;;;;;;;;;;;;;;;;345197;28;1713;-65
2022/08/17 05:22:06;;;;;;;;;;;;;;;;;;345361;28;849;-65
2022/08/17 05:22:16;;;;;;;;;;;;;;;;;;345285;28;1728;-65
2022/08/17 05:22:26;;;;;;;;;;;;;;;;;;345388;28;1139;-65
2022/08/17 05:22:45;;;;;;;;;;;;;;;;;;345384;28;833;-65
2022/08/17 05:22:57;;;;;;;;;;;;;;;;;;345364;28;1035;-65
2022/08/17 05:23:09;;;;;;;;;;;;;;;;;;345272;28;1338;-65
2022/08/17 05:23:20;;;;;;;;;;;;;;;;;;345438;28;810;-65
2022/08/17 05:23:31;;;;;;;;;;;;;;;;;;345451;28;889;-65
2022/08/17 05:23:43;;;;;;;;;;;;;;;;;;345362;28;1027;-66
2022/08/17 05:23:57;;;;;;;;;;;;;;;;;;345344;28;986;-65
2022/08/17 05:24:07;;;;;;;;;;;;;;;;;;344861;28;1802;-65
2022/08/17 05:24:17;;;;;;;;;;;;;;;;;;345321;28;1631;-64
2022/08/17 05:24:27;;;;;;;;;;;;;;;;;;345459;28;975;-65
2022/08/17 05:24:38;;;;;;;;;;;;;;;;;;345146;28;1467;-65
2022/08/17 05:24:48;;;;;;;;;;;;;;;;;;344167;28;1733;-64
2022/08/17 05:24:58;;;;;;;;;;;;;;;;;;345407;28;916;-64
2022/08/17 05:25:08;;;;;;;;;;;;;;;;;;345461;28;809;-65
2022/08/17 05:25:19;;;;;;;;;;;;;;;;;;345361;28;912;-65
2022/08/17 05:25:31;;;;;;;;;;;;;;;;;;345398;28;777;-65
2022/08/17 05:25:43;;;;;;;;;;;;;;;;;;345351;28;695;-65
2022/08/17 05:25:55;;;;;;;;;;;;;;;;;;345328;28;908;-64
2022/08/17 05:26:05;;;;;;;;;;;;;;;;;;345431;28;873;-65
2022/08/17 05:26:17;;;;;;;;;;;;;;;;;;344742;28;1843;-65
2022/08/17 05:26:27;;;;;;;;;;;;;;;;;;344426;28;1568;-66
2022/08/17 05:26:37;;;;;;;;;;;;;;;;;;345327;28;971;-65
2022/08/17 05:26:48;;;;;;;;;;;;;;;;;;345343;28;769;-65
2022/08/17 05:26:58;;;;;;;;;;;;;;;;;;345352;28;940;-65
2022/08/17 05:27:08;;;;;;;;;;;;;;;;;;345408;28;1010;-65
2022/08/17 05:27:18;;;;;;;;;;;;;;;;;;345322;28;830;-65
2022/08/17 05:27:28;;;;;;;;;;;;;;;;;;345371;28;924;-65
2022/08/17 05:27:38;;;;;;;;;;;;;;;;;;345382;28;975;-65
2022/08/17 05:27:49;;;;;;;;;;;;;;;;;;345132;28;1011;-65
2022/08/17 05:27:59;;;;;;;;;;;;;;;;;;345422;28;913;-65
2022/08/17 05:28:10;;;;;;;;;;;;;;;;;;345375;28;998;-64
2022/08/17 05:28:21;;;;;;;;;;;;;;;;;;345361;28;805;-65
2022/08/17 05:28:32;;;;;;;;;;;;;;;;;;345347;28;916;-65
2022/08/17 05:28:43;;;;;;;;;;;;;;;;;;345356;28;908;-65
2022/08/17 05:28:54;;;;;;;;;;;;;;;;;;345104;28;1701;-65
2022/08/17 05:29:04;;;;;;;;;;;;;;;;;;345323;28;1670;-65
2022/08/17 05:29:14;;;;;;;;;;;;;;;;;;345393;28;837;-65
2022/08/17 05:29:24;;;;;;;;;;;;;;;;;;345308;28;960;-66
2022/08/17 05:29:35;;;;;;;;;;;;;;;;;;345368;28;801;-66
2022/08/17 05:29:45;;;;;;;;;;;;;;;;;;345321;28;1413;-65
2022/08/17 05:29:56;;;;;;;;;;;;;;;;;;345095;28;1826;-65
2022/08/17 05:30:06;;;;;;;;;;;;;;;;;;344822;28;1680;-65
2022/08/17 05:30:16;;;;;;;;;;;;;;;;;;345080;28;1429;-65
2022/08/17 05:30:27;;;;;;;;;;;;;;;;;;345262;28;1733;-66
2022/08/17 05:30:38;;;;;;;;;;;;;;;;;;345348;28;857;-65
2022/08/17 05:30:49;;;;;;;;;;;;;;;;;;345350;28;884;-65
2022/08/17 05:31:00;;;;;;;;;;;;;;;;;;345283;28;837;-65
2022/08/17 05:31:10;;;;;;;;;;;;;;;;;;345264;28;964;-65
2022/08/17 05:31:21;;;;;;;;;;;;;;;;;;345227;28;1011;-65
2022/08/17 05:31:31;;;;;;;;;;;;;;;;;;345229;28;769;-65
2022/08/17 05:31:41;;;;;;;;;;;;;;;;;;345045;28;1264;-65
2022/08/17 05:31:53;;;;;;;;;;;;;;;;;;345249;28;987;-65
2022/08/17 05:32:07;;;;;;;;;;;;;;;;;;345232;28;959;-65
2022/08/17 05:32:22;;;;;;;;;;;;;;;;;;345218;28;881;-65
2022/08/17 05:32:32;;;;;;;;;;;;;;;;;;345051;28;1713;-64
2022/08/17 05:33:00;;;;;;;;;;;;;;;;;;344969;28;1256;-65
2022/08/17 05:33:15;;;;;;;;;;;;;;;;;;345011;28;1474;-65
2022/08/17 05:33:27;;;;;;;;;;;;;;;;;;344988;28;1642;-65
2022/08/17 05:33:38;;;;;;;;;;;;;;;;;;345239;28;932;-65
2022/08/17 05:33:48;;;;;;;;;;;;;;;;;;344646;28;1315;-65
2022/08/17 05:33:59;;;;;;;;;;;;;;;;;;344854;28;1429;-65
2022/08/17 05:34:10;;;;;;;;;;;;;;;;;;345028;28;1472;-66
2022/08/17 05:34:20;;;;;;;;;;;;;;;;;;345180;28;1706;-65
2022/08/17 05:34:30;;;;;;;;;;;;;;;;;;345080;28;1479;-66
2022/08/17 05:34:41;;;;;;;;;;;;;;;;;;345011;28;1840;-65
2022/08/17 05:34:54;;;;;;;;;;;;;;;;;;344971;28;1214;-65
2022/08/17 05:35:05;;;;;;;;;;;;;;;;;;345140;28;1197;-65
2022/08/17 05:35:15;;;;;;;;;;;;;;;;;;345253;28;873;-65
2022/08/17 05:35:26;;;;;;;;;;;;;;;;;;345153;28;1275;-65
2022/08/17 05:35:38;;;;;;;;;;;;;;;;;;345218;28;911;-65
2022/08/17 05:35:50;;;;;;;;;;;;;;;;;;345156;28;1138;-66
2022/08/17 05:36:02;;;;;;;;;;;;;;;;;;345294;28;864;-65
2022/08/17 05:36:13;;;;;;;;;;;;;;;;;;345037;28;1346;-66
2022/08/17 05:36:23;;;;;;;;;;;;;;;;;;345407;28;1471;-66
2022/08/17 05:36:33;;;;;;;;;;;;;;;;;;345161;28;1031;-65
2022/08/17 05:36:44;;;;;;;;;;;;;;;;;;345159;28;1178;-66
2022/08/17 05:36:54;;;;;;;;;;;;;;;;;;345270;28;972;-66
2022/08/17 05:37:04;;;;;;;;;;;;;;;;;;345233;28;994;-66
2022/08/17 05:37:14;;;;;;;;;;;;;;;;;;345225;28;931;-66
2022/08/17 05:37:25;;;;;;;;;;;;;;;;;;345217;28;940;-65
2022/08/17 05:37:35;;;;;;;;;;;;;;;;;;345130;28;1121;-65
2022/08/17 05:37:45;;;;;;;;;;;;;;;;;;345029;28;805;-65
2022/08/17 05:37:56;;;;;;;;;;;;;;;;;;345196;28;929;-65
2022/08/17 05:38:07;;;;;;;;;;;;;;;;;;345185;28;909;-66
2022/08/17 05:38:18;;;;;;;;;;;;;;;;;;345326;28;836;-65
2022/08/17 05:38:29;;;;;;;;;;;;;;;;;;345173;28;948;-66
2022/08/17 05:38:40;;;;;;;;;;;;;;;;;;344905;28;1796;-66
2022/08/17 05:38:50;;;;;;;;;;;;;;;;;;345200;28;955;-65
2022/08/17 05:39:01;;;;;;;;;;;;;;;;;;345247;28;893;-65
2022/08/17 05:39:12;;;;;;;;;;;;;;;;;;345256;28;983;-65
2022/08/17 05:39:22;;;;;;;;;;;;;;;;;;345317;28;935;-66
2022/08/17 05:39:32;;;;;;;;;;;;;;;;;;345223;28;963;-66
2022/08/17 05:39:42;;;;;;;;;;;;;;;;;;345248;28;1010;-65
2022/08/17 05:39:53;;;;;;;;;;;;;;;;;;345134;28;819;-65
2022/08/17 05:40:03;;;;;;;;;;;;;;;;;;345166;28;1011;-66
2022/08/17 05:40:14;;;;;;;;;;;;;;;;;;345258;28;983;-66
2022/08/17 05:40:24;;;;;;;;;;;;;;;;;;345329;28;945;-65
2022/08/17 05:40:35;;;;;;;;;;;;;;;;;;345178;28;971;-65
2022/08/17 05:40:46;;;;;;;;;;;;;;;;;;344758;28;1684;-66
2022/08/17 05:40:57;;;;;;;;;;;;;;;;;;345086;28;1567;-65
2022/08/17 05:41:07;;;;;;;;;;;;;;;;;;345217;28;1023;-65
2022/08/17 05:41:18;;;;;;;;;;;;;;;;;;345284;28;853;-65
2022/08/17 05:41:28;;;;;;;;;;;;;;;;;;345214;28;1619;-65
2022/08/17 05:41:38;;;;;;;;;;;;;;;;;;345216;28;828;-65
2022/08/17 05:41:48;;;;;;;;;;;;;;;;;;344775;28;1554;-65
2022/08/17 05:42:00;;;;;;;;;;;;;;;;;;344898;28;1433;-65
2022/08/17 05:42:10;;;;;;;;;;;;;;;;;;343924;28;971;-65
2022/08/17 05:42:21;;;;;;;;;;;;;;;;;;345083;28;928;-66
2022/08/17 05:42:31;;;;;;;;;;;;;;;;;;345246;28;948;-65
2022/08/17 05:42:41;;;;;;;;;;;;;;;;;;345186;28;1914;-65
2022/08/17 05:43:02;;;;;;;;;;;;;;;;;;345292;28;878;-65
2022/08/17 05:43:14;;;;;;;;;;;;;;;;;;345308;28;924;-65
2022/08/17 05:43:35;;;;;;;;;;;;;;;;;;345294;28;899;-65
2022/08/17 05:43:45;;;;;;;;;;;;;;;;;;344615;28;1629;-65
2022/08/17 05:43:55;;;;;;;;;;;;;;;;;;345176;28;1587;-65
2022/08/17 05:44:06;;;;;;;;;;;;;;;;;;345328;28;912;-65
2022/08/17 05:44:16;;;;;;;;;;;;;;;;;;345299;28;836;-65
2022/08/17 05:44:26;;;;;;;;;;;;;;;;;;345222;28;1612;-65
2022/08/17 05:44:36;;;;;;;;;;;;;;;;;;345162;28;995;-65
2022/08/17 05:44:47;;;;;;;;;;;;;;;;;;344870;28;1487;-65
2022/08/17 05:44:57;;;;;;;;;;;;;;;;;;344997;28;1639;-65
2022/08/17 05:45:08;;;;;;;;;;;;;;;;;;345295;28;987;-65
2022/08/17 05:45:19;;;;;;;;;;;;;;;;;;345075;28;1580;-64
2022/08/17 05:45:31;;;;;;;;;;;;;;;;;;343959;28;845;-64
2022/08/17 05:45:45;;;;;;;;;;;;;;;;;;343964;28;825;-65
2022/08/17 05:46:09;;;;;;;;;;;;;;;;;;343971;28;968;-65
2022/08/17 05:46:22;;;;;;;;;;;;;;;;;;343996;28;983;-65
2022/08/17 05:46:34;;;;;;;;;;;;;;;;;;343995;28;1011;-65
2022/08/17 05:46:47;;;;;;;;;;;;;;;;;;343981;28;888;-65
2022/08/17 05:46:58;;;;;;;;;;;;;;;;;;343990;28;932;-65
2022/08/17 05:47:09;;;;;;;;;;;;;;;;;;344039;28;920;-64
2022/08/17 05:47:20;;;;;;;;;;;;;;;;;;344060;28;924;-64
2022/08/17 05:47:31;;;;;;;;;;;;;;;;;;344086;28;1177;-65
2022/08/17 05:47:42;;;;;;;;;;;;;;;;;;344018;28;853;-65
2022/08/17 05:47:52;;;;;;;;;;;;;;;;;;343944;28;774;-64
2022/08/17 05:48:02;;;;;;;;;;;;;;;;;;344073;28;924;-64
2022/08/17 05:48:14;;;;;;;;;;;;;;;;;;344014;28;975;-65
2022/08/17 05:48:24;;;;;;;;;;;;;;;;;;344012;28;929;-65
2022/08/17 05:48:43;;;;;;;;;;;;;;;;;;344282;28;1729;-65
2022/08/17 05:49:00;;;;;;;;;;;;;;;;;;344031;28;932;-65
2022/08/17 05:49:11;;;;;;;;;;;;;;;;;;344009;28;841;-65
2022/08/17 05:49:25;;;;;;;;;;;;;;;;;;344075;28;845;-65
2022/08/17 05:49:36;;;;;;;;;;;;;;;;;;344073;28;991;-65
2022/08/17 05:49:46;;;;;;;;;;;;;;;;;;343968;28;916;-65
2022/08/17 05:49:57;;;;;;;;;;;;;;;;;;344054;28;776;-65
2022/08/17 05:50:08;;;;;;;;;;;;;;;;;;344047;28;916;-64
2022/08/17 05:50:21;;;;;;;;;;;;;;;;;;343972;28;863;-65
2022/08/17 05:50:40;;;;;;;;;;;;;;;;;;343991;28;917;-64
2022/08/17 05:50:53;;;;;;;;;;;;;;;;;;343967;28;972;-65
2022/08/17 05:51:22;;;;;;;;;;;;;;;;;;344016;28;858;-65
2022/08/17 05:51:32;;;;;;;;;;;;;;;;;;345064;28;1884;-65
2022/08/17 05:51:42;;;;;;;;;;;;;;;;;;345335;28;936;-65
2022/08/17 05:52:07;;;;;;;;;;;;;;;;;;345335;28;1831;-64
2022/08/17 05:52:20;;;;;;;;;;;;;;;;;;343997;28;968;-65
2022/08/17 05:52:46;;;;;;;;;;;;;;;;;;343978;28;972;-65
2022/08/17 05:53:09;;;;;;;;;;;;;;;;;;344012;28;897;-65
2022/08/17 05:53:31;;;;;;;;;;;;;;;;;;345448;28;1437;-66
2022/08/17 05:53:41;;;;;;;;;;;;;;;;;;345208;28;905;-65
2022/08/17 05:54:10;;;;;;;;;;;;;;;;;;345425;28;940;-65
2022/08/17 05:54:31;;;;;;;;;;;;;;;;;;345344;28;913;-64
2022/08/17 05:54:49;;;;;;;;;;;;;;;;;;345299;28;952;-65
2022/08/17 05:55:00;;;;;;;;;;;;;;;;;;345422;28;766;-65
2022/08/17 05:55:10;;;;;;;;;;;;;;;;;;345441;28;916;-65
2022/08/17 05:55:39;;;;;;;;;;;;;;;;;;345266;28;2535;-66
2022/08/17 05:55:49;;;;;;;;;;;;;;;;;;345396;28;913;-65
2022/08/17 05:56:05;;;;;;;;;;;;;;;;;;345372;28;963;-66
2022/08/17 05:56:18;;;;;;;;;;;;;;;;;;345356;28;901;-66
2022/08/17 05:56:52;;;;;;;;;;;;;;;;;;345330;28;813;-66
2022/08/17 05:57:21;;;;;;;;;;;;;;;;;;345359;28;893;-66
2022/08/17 05:57:36;;;;;;;;;;;;;;;;;;343960;28;956;-64
2022/08/17 05:58:01;;;;;;;;;;;;;;;;;;343834;28;964;-66
2022/08/17 05:58:23;;;;;;;;;;;;;;;;;;344068;28;1551;-66
2022/08/17 05:58:48;;;;;;;;;;;;;;;;;;344324;28;1919;-65
2022/08/17 05:59:07;;;;;;;;;;;;;;;;;;344041;28;917;-65
2022/08/17 05:59:27;;;;;;;;;;;;;;;;;;343997;28;873;-64
2022/08/17 05:59:49;;;;;;;;;;;;;;;;;;344035;28;945;-65
2022/08/17 06:00:07;;;;;;;;;;;;;;;;;;344011;28;967;-65
2022/08/17 06:00:25;;;;;;;;;;;;;;;;;;351091;28;2055;-65
2022/08/17 06:00:42;;;;;;;;;;;;;;;;;;352342;28;919;-65
2022/08/17 06:01:02;;;;;;;;;;;;;;;;;;352541;27;1263;-65
2022/08/17 06:01:19;;;;;;;;;;;;;;;;;;350101;27;1731;-65
2022/08/17 06:01:34;;;;;;;;;;;;;;;;;;344760;28;1664;-63
2022/08/17 06:01:51;;;;;;;;;;;;;;;;;;345431;28;802;-64
2022/08/17 06:02:05;;;;;;;;;;;;;;;;;;344369;28;1459;-64
2022/08/17 06:02:39;;;;;;;;;;;;;;;;;;345212;28;1894;-65
2022/08/17 06:02:54;;;;;;;;;;;;;;;;;;343778;28;1898;-65
2022/08/17 06:03:13;;;;;;;;;;;;;;;;;;343888;28;1050;-64
2022/08/17 06:03:29;;;;;;;;;;;;;;;;;;344008;28;999;-65
2022/08/17 06:03:46;;;;;;;;;;;;;;;;;;344048;28;1076;-64
2022/08/17 06:04:14;;;;;;;;;;;;;;;;;;343964;28;877;-64
2022/08/17 06:04:43;;;;;;;;;;;;;;;;;;344820;28;1717;-64
2022/08/17 06:05:04;;;;;;;;;;;;;;;;;;344495;28;869;-64
2022/08/17 06:05:21;;;;;;;;;;;;;;;;;;345248;28;1755;-64
2022/08/17 06:05:50;;;;;;;;;;;;;;;;;;345014;28;1783;-64
2022/08/17 06:06:07;;;;;;;;;;;;;;;;;;345188;28;1553;-64
2022/08/17 06:06:24;;;;;;;;;;;;;;;;;;345411;27;991;-64
2022/08/17 06:06:34;;;;;;;;;;;;;;;;;;345404;28;1474;-64
2022/08/17 06:06:55;;;;;;;;;;;;;;;;;;345194;28;1731;-64
2022/08/17 06:07:05;;;;;;;;;;;;;;;;;;344758;28;944;-64
2022/08/17 06:07:19;;;;;;;;;;;;;;;;;;345433;28;983;-64
2022/08/17 06:07:38;;;;;;;;;;;;;;;;;;345331;28;983;-64
2022/08/17 06:07:52;;;;;;;;;;;;;;;;;;345212;28;766;-64
2022/08/17 06:08:08;;;;;;;;;;;;;;;;;;345346;28;1030;-64
2022/08/17 06:08:34;;;;;;;;;;;;;;;;;;345411;28;959;-63
2022/08/17 06:08:55;;;;;;;;;;;;;;;;;;345204;28;1130;-63
2022/08/17 06:09:23;;;;;;;;;;;;;;;;;;345288;28;797;-64
2022/08/17 06:09:44;;;;;;;;;;;;;;;;;;345198;28;912;-64
2022/08/17 06:09:58;;;;;;;;;;;;;;;;;;344325;28;1684;-63
2022/08/17 06:10:12;;;;;;;;;;;;;;;;;;345280;28;952;-64
2022/08/17 06:10:28;;;;;;;;;;;;;;;;;;345160;27;1727;-63
2022/08/17 06:10:58;;;;;;;;;;;;;;;;;;345142;28;1016;-64
2022/08/17 06:11:08;;;;;;;;;;;;;;;;;;345055;28;1157;-64
2022/08/17 06:11:28;;;;;;;;;;;;;;;;;;345208;28;901;-64
2022/08/17 06:11:55;;;;;;;;;;;;;;;;;;345163;28;1709;-64
2022/08/17 06:12:27;;;;;;;;;;;;;;;;;;345221;28;920;-64
2022/08/17 06:12:40;;;;;;;;;;;;;;;;;;345139;28;857;-67
2022/08/17 06:12:56;;;;;;;;;;;;;;;;;;345207;28;905;-67
2022/08/17 06:13:26;;;;;;;;;;;;;;;;;;345275;28;881;-67
2022/08/17 06:13:55;;;;;;;;;;;;;;;;;;345064;27;944;-67
2022/08/17 06:14:11;;;;;;;;;;;;;;;;;;345211;28;972;-67
2022/08/17 06:14:40;;;;;;;;;;;;;;;;;;344282;28;924;-68
2022/08/17 06:15:00;;;;;;;;;;;;;;;;;;344349;28;917;-68
2022/08/17 06:15:13;;;;;;;;;;;;;;;;;;344236;28;865;-67
2022/08/17 06:15:30;;;;;;;;;;;;;;;;;;344358;28;948;-68
2022/08/17 06:15:50;;;;;;;;;;;;;;;;;;344297;28;1026;-68
2022/08/17 06:16:03;;;;;;;;;;;;;;;;;;342976;28;841;-68
2022/08/17 06:16:15;;;;;;;;;;;;;;;;;;342985;28;837;-68
2022/08/17 06:16:30;;;;;;;;;;;;;;;;;;345063;28;2064;-67
2022/08/17 06:16:42;;;;;;;;;;;;;;;;;;351329;28;824;-67
2022/08/17 06:16:55;;;;;;;;;;;;;;;;;;351436;28;765;-67
2022/08/17 06:17:09;;;;;;;;;;;;;;;;;;351391;28;837;-67
2022/08/17 06:17:21;;;;;;;;;;;;;;;;;;351330;28;932;-67
2022/08/17 06:17:32;;;;;;;;;;;;;;;;;;351437;28;878;-68
2022/08/17 06:17:43;;;;;;;;;;;;;;;;;;351301;28;802;-67
2022/08/17 06:17:56;;;;;;;;;;;;;;;;;;346892;27;1289;-68
2022/08/17 06:18:10;;;;;;;;;;;;;;;;;;344169;28;976;-68
2022/08/17 06:18:22;;;;;;;;;;;;;;;;;;344186;28;988;-67
2022/08/17 06:18:40;;;;;;;;;;;;;;;;;;344144;28;1082;-67
2022/08/17 06:18:53;;;;;;;;;;;;;;;;;;344220;28;968;-67
2022/08/17 06:19:18;;;;;;;;;;;;;;;;;;344121;28;948;-68
2022/08/17 06:19:39;;;;;;;;;;;;;;;;;;344208;28;762;-67
2022/08/17 06:19:54;;;;;;;;;;;;;;;;;;344185;28;991;-67
2022/08/17 06:20:08;;;;;;;;;;;;;;;;;;344289;28;857;-68
2022/08/17 06:20:18;;;;;;;;;;;;;;;;;;344275;28;1007;-68
2022/08/17 06:20:34;;;;;;;;;;;;;;;;;;344246;28;1011;-68
2022/08/17 06:20:51;;;;;;;;;;;;;;;;;;344274;28;972;-67
2022/08/17 06:21:04;;;;;;;;;;;;;;;;;;344277;28;991;-68
2022/08/17 06:21:16;;;;;;;;;;;;;;;;;;344347;28;1003;-68
2022/08/17 06:21:29;;;;;;;;;;;;;;;;;;344255;28;940;-67
2022/08/17 06:21:41;;;;;;;;;;;;;;;;;;343749;28;1708;-67
2022/08/17 06:21:53;;;;;;;;;;;;;;;;;;344117;28;1728;-67
2022/08/17 06:22:04;;;;;;;;;;;;;;;;;;344261;28;980;-68
2022/08/17 06:22:17;;;;;;;;;;;;;;;;;;344182;28;1791;-67
2022/08/17 06:22:32;;;;;;;;;;;;;;;;;;343850;28;1622;-67
2022/08/17 06:22:48;;;;;;;;;;;;;;;;;;343585;28;805;-67
2022/08/17 06:23:03;;;;;;;;;;;;;;;;;;344257;28;995;-68
2022/08/17 06:23:17;;;;;;;;;;;;;;;;;;344287;28;928;-67
2022/08/17 06:23:41;;;;;;;;;;;;;;;;;;344308;28;956;-67
2022/08/17 06:23:55;;;;;;;;;;;;;;;;;;344096;28;1807;-67
2022/08/17 06:24:23;;;;;;;;;;;;;;;;;;343020;28;845;-67
2022/08/17 06:24:40;;;;;;;;;;;;;;;;;;342880;28;909;-67
2022/08/17 06:24:56;;;;;;;;;;;;;;;;;;343282;28;1740;-67
2022/08/17 06:25:11;;;;;;;;;;;;;;;;;;343678;28;1930;-67
2022/08/17 06:25:25;;;;;;;;;;;;;;;;;;344343;28;829;-67
2022/08/17 06:25:43;;;;;;;;;;;;;;;;;;344171;28;2035;-68
2022/08/17 06:25:57;;;;;;;;;;;;;;;;;;344330;28;912;-68
2022/08/17 06:26:11;;;;;;;;;;;;;;;;;;344176;28;1460;-67
2022/08/17 06:26:27;;;;;;;;;;;;;;;;;;343114;28;1444;-68
2022/08/17 06:26:38;;;;;;;;;;;;;;;;;;344152;28;960;-67
2022/08/17 06:26:50;;;;;;;;;;;;;;;;;;344243;28;1701;-68
2022/08/17 06:27:06;;;;;;;;;;;;;;;;;;344330;28;936;-68
2022/08/17 06:27:36;;;;;;;;;;;;;;;;;;344305;28;1098;-67
2022/08/17 06:27:49;;;;;;;;;;;;;;;;;;344059;28;1112;-67
2022/08/17 06:28:03;;;;;;;;;;;;;;;;;;344332;28;921;-68
2022/08/17 06:28:16;;;;;;;;;;;;;;;;;;344662;28;1515;-68
2022/08/17 06:28:33;;;;;;;;;;;;;;;;;;344277;28;948;-67
2022/08/17 06:28:50;;;;;;;;;;;;;;;;;;344238;28;940;-68
2022/08/17 06:29:03;;;;;;;;;;;;;;;;;;344287;28;901;-67
2022/08/17 06:29:34;;;;;;;;;;;;;;;;;;344222;28;988;-68
2022/08/17 06:29:47;;;;;;;;;;;;;;;;;;344269;28;956;-67
2022/08/17 06:30:09;;;;;;;;;;;;;;;;;;344242;28;975;-68
2022/08/17 06:30:23;;;;;;;;;;;;;;;;;;344312;28;755;-68
2022/08/17 06:30:41;;;;;;;;;;;;;;;;;;344254;28;964;-68
2022/08/17 06:30:56;;;;;;;;;;;;;;;;;;344260;28;940;-68
2022/08/17 06:31:11;;;;;;;;;;;;;;;;;;343878;28;1653;-68
2022/08/17 06:31:26;;;;;;;;;;;;;;;;;;345395;28;1807;-67
2022/08/17 06:31:38;;;;;;;;;;;;;;;;;;345419;28;975;-68
2022/08/17 06:31:49;;;;;;;;;;;;;;;;;;345083;28;1324;-67
2022/08/17 06:32:01;;;;;;;;;;;;;;;;;;345449;28;1823;-68
2022/08/17 06:32:12;;;;;;;;;;;;;;;;;;345543;28;881;-68
2022/08/17 06:32:23;;;;;;;;;;;;;;;;;;344739;28;1499;-67
2022/08/17 06:32:36;;;;;;;;;;;;;;;;;;344089;28;924;-68
2022/08/17 06:32:48;;;;;;;;;;;;;;;;;;345185;28;800;-68
2022/08/17 06:33:06;;;;;;;;;;;;;;;;;;345704;28;963;-68
2022/08/17 06:33:19;;;;;;;;;;;;;;;;;;344133;28;1534;-67
2022/08/17 06:33:34;;;;;;;;;;;;;;;;;;344406;28;1499;-67
2022/08/17 06:33:46;;;;;;;;;;;;;;;;;;344367;28;1027;-66
2022/08/17 06:33:57;;;;;;;;;;;;;;;;;;344309;28;944;-67
2022/08/17 06:34:09;;;;;;;;;;;;;;;;;;344407;28;964;-68
2022/08/17 06:34:20;;;;;;;;;;;;;;;;;;344487;28;893;-68
2022/08/17 06:34:31;;;;;;;;;;;;;;;;;;344326;28;1011;-68
2022/08/17 06:34:42;;;;;;;;;;;;;;;;;;344396;28;956;-68
2022/08/17 06:34:52;;;;;;;;;;;;;;;;;;344506;28;936;-68
2022/08/17 06:35:05;;;;;;;;;;;;;;;;;;344376;28;1011;-68
2022/08/17 06:35:24;;;;;;;;;;;;;;;;;;344488;28;798;-67
2022/08/17 06:35:39;;;;;;;;;;;;;;;;;;344431;28;877;-65
2022/08/17 06:35:52;;;;;;;;;;;;;;;;;;343963;28;1712;-64
2022/08/17 06:36:13;;;;;;;;;;;;;;;;;;343655;28;1546;-64
2022/08/17 06:36:33;;;;;;;;;;;;;;;;;;344017;28;1550;-64
2022/08/17 06:36:52;;;;;;;;;;;;;;;;;;343046;28;916;-64
2022/08/17 06:37:17;;;;;;;;;;;;;;;;;;343145;28;854;-64
2022/08/17 06:37:47;;;;;;;;;;;;;;;;;;343065;28;917;-67
2022/08/17 06:38:14;;;;;;;;;;;;;;;;;;343100;28;1011;-67
2022/08/17 06:38:41;;;;;;;;;;;;;;;;;;343053;28;1011;-66
2022/08/17 06:39:17;;;;;;;;;;;;;;;;;;343138;28;920;-67
2022/08/17 06:39:46;;;;;;;;;;;;;;;;;;343059;28;971;-67
2022/08/17 06:40:06;;;;;;;;;;;;;;;;;;343920;28;1730;-67
2022/08/17 06:40:28;;;;;;;;;;;;;;;;;;343044;28;964;-67
2022/08/17 06:40:57;;;;;;;;;;;;;;;;;;343114;28;908;-67
2022/08/17 06:41:25;;;;;;;;;;;;;;;;;;350092;28;831;-67
2022/08/17 06:41:44;;;;;;;;;;;;;;;;;;350111;28;915;-67
2022/08/17 06:41:54;;;;;;;;;;;;;;;;;;345749;28;1717;-67